Time;durP1;ratioP1;P1;durP2;ratioP2;P2;SDS_P1;SDS_P2;PMS_P1;PMS_P2;Temp;Humidity;BMP_temperature;BMP_pressure;BME280_temperature;BME280_humidity;BME280_pressure;Samples;Min_cycle;Max_cycle;Signal;HPM_P1;HPM_P2
2021/04/14 08:23:31;;;;;;;8.15;2.20;;;11.80;69.30;;;;;;5116097;27;20112;-73
2021/04/14 08:26:12;;;;;;;8.57;2.15;;;6.10;85.80;;;;;;5097247;28;20059;-78
2021/04/14 08:28:45;;;;;;;11.23;2.40;;;6.30;86.30;;;;;;5095008;28;20103;-82
2021/04/14 08:31:45;;;;;;;10.98;1.67;;;6.60;85.80;;;;;;5095163;28;20032;-74
2021/04/14 08:34:34;;;;;;;6.78;1.95;;;6.80;81.60;;;;;;5086965;28;20047;-79
2021/04/14 08:37:04;;;;;;;4.35;1.05;;;6.90;80.30;;;;;;5055830;28;20028;-79
2021/04/14 08:39:46;;;;;;;9.65;1.13;;;6.90;81.20;;;;;;5056607;28;20025;-77
2021/04/14 08:42:23;;;;;;;8.73;1.65;;;7.00;80.00;;;;;;5073674;28;20114;-75
2021/04/14 08:45:19;;;;;;;4.60;1.10;;;7.10;80.00;;;;;;5073764;28;20422;-77
2021/04/14 08:47:52;;;;;;;5.20;1.43;;;7.20;77.90;;;;;;5069364;28;20043;-77
2021/04/14 08:50:34;;;;;;;8.63;1.13;;;7.30;77.90;;;;;;5055594;28;20024;-78
2021/04/14 08:53:08;;;;;;;5.50;1.38;;;7.40;77.30;;;;;;5073422;28;20017;-82
2021/04/14 08:55:37;;;;;;;7.90;1.30;;;7.50;78.60;;;;;;5055755;28;20033;-76
2021/04/14 08:58:06;;;;;;;8.48;1.30;;;7.60;77.30;;;;;;5055843;28;20063;-85
2021/04/14 09:00:39;;;;;;;9.88;1.40;;;7.60;77.00;;;;;;5074153;28;20384;-80
2021/04/14 09:03:09;;;;;;;4.28;1.90;;;7.60;77.90;;;;;;5074132;28;20025;-79
2021/04/14 09:05:38;;;;;;;9.77;2.38;;;7.70;74.80;;;;;;5056105;28;20059;-82
2021/04/14 09:08:12;;;;;;;8.70;1.00;;;7.70;76.60;;;;;;5056212;28;20029;-81
2021/04/14 09:10:53;;;;;;;7.03;1.85;;;7.70;77.00;;;;;;5056188;28;20294;-78
2021/04/14 09:13:46;;;;;;;6.05;1.30;;;7.80;77.80;;;;;;5056069;28;20025;-78
2021/04/14 09:16:27;;;;;;;4.90;1.00;;;7.90;75.00;;;;;;5056009;28;20027;-78
2021/04/14 09:19:24;;;;;;;8.82;2.78;;;8.00;73.90;;;;;;5072844;28;20043;-80
2021/04/14 09:21:57;;;;;;;3.95;1.15;;;8.00;74.60;;;;;;5065700;28;20356;-83
2021/04/14 09:25:01;;;;;;;3.00;1.30;;;8.10;74.70;;;;;;5053340;28;20112;-83
2021/04/14 09:27:38;;;;;;;7.75;1.45;;;8.20;72.90;;;;;;5035156;28;20022;-81
2021/04/14 09:30:09;;;;;;;7.25;1.42;;;8.20;72.20;;;;;;5052977;28;20017;-82
2021/04/14 09:32:58;;;;;;;6.88;1.17;;;8.20;71.10;;;;;;5033907;28;20032;-89
2021/04/14 09:35:29;;;;;;;6.22;1.10;;;8.20;72.50;;;;;;5022059;28;20045;-86
2021/04/14 09:38:23;;;;;;;3.08;0.77;;;8.20;73.30;;;;;;5021797;28;20087;-85
2021/04/14 09:41:15;;;;;;;6.32;1.30;;;8.20;72.40;;;;;;5021911;28;20035;-86
2021/04/14 09:43:46;;;;;;;5.65;1.42;;;8.20;71.10;;;;;;5040512;28;20033;-85
2021/04/14 09:46:27;;;;;;;5.20;2.08;;;8.20;69.50;;;;;;5040067;28;20442;-76
2021/04/14 09:48:55;;;;;;;7.63;1.40;;;8.10;70.30;;;;;;5040218;28;20057;-76
2021/04/14 09:51:36;;;;;;;7.40;1.40;;;8.00;71.10;;;;;;5022843;28;20321;-85
2021/04/14 09:54:12;;;;;;;4.72;1.65;;;8.00;73.10;;;;;;5022440;28;20029;-85
2021/04/14 09:56:47;;;;;;;;;;;8.00;71.30;;;;;;5040352;28;20026;-85
2021/04/14 09:59:16;;;;;;;4.32;0.90;;;8.10;70.10;;;;;;5039727;28;19978;-77
2021/04/14 10:01:48;;;;;;;4.93;0.98;;;8.20;69.80;;;;;;5022143;28;20021;-85
2021/04/14 10:04:23;;;;;;;7.25;1.05;;;8.30;69.10;;;;;;5020979;28;20108;-83
2021/04/14 10:06:57;;;;;;;6.65;2.25;;;8.40;69.00;;;;;;5021171;28;20365;-84
2021/04/14 10:09:29;;;;;;;3.20;0.70;;;8.60;69.80;;;;;;5038650;28;20025;-84
2021/04/14 10:12:14;;;;;;;5.65;0.80;;;8.80;63.50;;;;;;5021060;28;20117;-84
2021/04/14 10:14:52;;;;;;;3.55;0.82;;;9.00;65.50;;;;;;5039096;28;20033;-78
2021/04/14 10:17:21;;;;;;;7.60;1.13;;;9.10;66.40;;;;;;5038563;28;20026;-83
2021/04/14 10:19:55;;;;;;;6.85;1.40;;;9.10;66.20;;;;;;5038753;28;20112;-81
2021/04/14 10:22:38;;;;;;;4.95;1.38;;;9.20;66.40;;;;;;5039909;28;20056;-77
2021/04/14 10:25:11;;;;;;;2.50;0.68;;;9.20;65.60;;;;;;5059461;28;20364;-83
2021/04/14 10:27:39;;;;;;;4.40;0.80;;;9.20;62.40;;;;;;5059468;28;20025;-87
2021/04/14 10:30:09;;;;;;;7.35;1.13;;;9.10;60.60;;;;;;5059404;28;20321;-87
2021/04/14 10:32:38;;;;;;;7.93;2.55;;;9.10;61.70;;;;;;5058339;28;20029;-83
2021/04/14 10:35:19;;;;;;;6.90;1.35;;;9.10;63.50;;;;;;5058185;28;20024;-83
2021/04/14 10:37:51;;;;;;;2.30;0.70;;;9.10;64.00;;;;;;5058013;28;20363;-87
2021/04/14 10:40:27;;;;;;;5.82;0.80;;;9.20;63.60;;;;;;5059253;28;20053;-83
2021/04/14 10:43:11;;;;;;;6.30;0.85;;;9.30;65.10;;;;;;5058086;28;20033;-90
2021/04/14 10:46:00;;;;;;;4.25;1.48;;;9.40;63.30;;;;;;5057271;28;20052;-81
2021/04/14 10:48:29;;;;;;;1.90;0.60;;;9.50;63.50;;;;;;5058002;28;20412;-84
2021/04/14 10:51:19;;;;;;;4.43;0.43;;;9.70;60.00;;;;;;5056993;28;20371;-85
2021/04/14 10:53:57;;;;;;;2.08;0.47;;;9.80;60.30;;;;;;5056894;28;20121;-83
2021/04/14 10:56:30;;;;;;;2.88;0.50;;;9.90;61.50;;;;;;5057974;28;20029;-85
2021/04/14 10:59:06;;;;;;;2.80;0.68;;;10.00;60.50;;;;;;5056832;28;20025;-88
2021/04/14 11:01:36;;;;;;;4.97;1.70;;;10.00;57.70;;;;;;5056724;28;20113;-89
2021/04/14 11:04:39;;;;;;;5.07;0.75;;;9.80;58.90;;;;;;5056812;28;20044;-86
2021/04/14 11:07:18;;;;;;;6.10;2.28;;;9.70;59.60;;;;;;5057923;28;20027;-84
2021/04/14 11:09:47;;;;;;;6.88;2.30;;;9.70;61.90;;;;;;5057453;28;20017;-85
2021/04/14 11:12:21;;;;;;;3.60;0.90;;;9.60;65.10;;;;;;5058471;28;20074;-85
2021/04/14 11:15:11;;;;;;;2.72;0.88;;;9.50;65.20;;;;;;5058572;28;20024;-84
2021/04/14 11:17:38;;;;;;;4.20;0.90;;;9.30;62.80;;;;;;5057395;28;20025;-88
2021/04/14 11:20:16;;;;;;;6.65;1.10;;;9.10;63.40;;;;;;5057209;28;20028;-83
2021/04/14 11:22:46;;;;;;;3.75;0.73;;;9.00;62.40;;;;;;5044145;28;20132;-82
2021/04/14 11:25:36;;;;;;;3.63;0.90;;;8.80;63.20;;;;;;5038508;28;20059;-85
2021/04/14 11:28:10;;;;;;;2.38;0.60;;;8.70;64.20;;;;;;5019865;28;20031;-84
2021/04/14 11:30:55;;;;;;;5.13;0.90;;;8.70;59.60;;;;;;5037404;28;20017;-84
2021/04/14 11:33:45;;;;;;;4.22;0.60;;;8.80;60.80;;;;;;5037413;28;20445;-84
2021/04/14 11:36:34;;;;;;;2.80;0.73;;;9.00;61.70;;;;;;5019482;28;20091;-84
2021/04/14 11:39:08;;;;;;;4.32;0.73;;;9.40;61.00;;;;;;5019396;28;20025;-84
2021/04/14 11:41:42;;;;;;;6.18;0.77;;;9.60;60.30;;;;;;5019363;28;20030;-84
2021/04/14 11:44:19;;;;;;;2.90;0.73;;;9.80;60.60;;;;;;5019341;28;20364;-84
2021/04/14 11:47:02;;;;;;;6.15;1.05;;;9.80;61.50;;;;;;5019576;28;20369;-84
2021/04/14 11:49:33;;;;;;;4.57;0.70;;;9.70;61.70;;;;;;5037072;28;20097;-84
2021/04/14 11:52:14;;;;;;;2.58;0.80;;;9.50;62.30;;;;;;5037709;28;20025;-84
2021/04/14 11:54:42;;;;;;;3.90;0.80;;;9.20;64.20;;;;;;5037880;28;20026;-88
2021/04/14 11:57:13;;;;;;;6.05;1.65;;;9.10;63.60;;;;;;5020505;28;20121;-91
2021/04/14 12:00:16;;;;;;;7.70;0.90;;;9.30;63.50;;;;;;5021472;28;20072;-87
2021/04/14 12:02:46;;;;;;;2.33;0.85;;;9.50;64.00;;;;;;5020485;28;20025;-88
2021/04/14 12:05:14;;;;;;;4.68;0.80;;;9.80;61.40;;;;;;5020303;28;20144;-87
2021/04/14 12:07:42;;;;;;;4.13;0.80;;;9.80;61.30;;;;;;5020506;28;20045;-87
2021/04/14 12:10:11;;;;;;;4.57;1.33;;;9.90;61.10;;;;;;5037610;28;20095;-84
2021/04/14 12:12:40;;;;;;;5.25;0.60;;;10.00;61.60;;;;;;5020135;28;20451;-86
2021/04/14 12:15:09;;;;;;;2.95;0.90;;;10.00;60.40;;;;;;5020027;28;20040;-85
2021/04/14 12:17:36;;;;;;;2.17;0.40;;;10.00;61.40;;;;;;5019352;28;20036;-94
2021/04/14 12:20:05;;;;;;;4.45;0.55;;;10.10;59.40;;;;;;5019352;28;20022;-87
2021/04/14 12:22:33;;;;;;;1.80;0.43;;;10.20;57.70;;;;;;5040383;28;20075;-85
2021/04/14 12:25:01;;;;;;;2.45;0.60;;;10.30;57.90;;;;;;5055594;28;20416;-86
2021/04/14 12:27:28;;;;;;;0.88;0.35;;;10.30;56.50;;;;;;5056840;28;20416;-85
2021/04/14 12:29:56;;;;;;;2.55;0.70;;;10.20;56.20;;;;;;5056220;28;20029;-91
2021/04/14 12:32:24;;;;;;;1.60;0.60;;;10.00;57.50;;;;;;5055760;28;20029;-86
2021/04/14 12:34:53;;;;;;;2.15;0.65;;;10.00;58.60;;;;;;5056380;28;20036;-88
2021/04/14 12:37:20;;;;;;;2.33;0.73;;;10.10;59.80;;;;;;5057312;28;20048;-88
2021/04/14 12:39:48;;;;;;;6.35;1.65;;;10.10;59.60;;;;;;5056789;28;20033;-90
2021/04/14 12:42:15;;;;;;;5.82;1.38;;;10.10;59.90;;;;;;5056793;28;20025;-86
2021/04/14 12:44:42;;;;;;;7.40;2.53;;;10.10;59.30;;;;;;5056414;28;20055;-85
2021/04/14 12:47:20;;;;;;;4.22;1.20;;;10.20;59.20;;;;;;5056345;28;20328;-88
2021/04/14 12:49:49;;;;;;;2.40;1.20;;;10.40;58.00;;;;;;5056129;28;20025;-84
2021/04/14 12:52:43;;;;;;;2.75;0.70;;;10.50;58.00;;;;;;5055947;28;20059;-84
2021/04/14 12:55:18;;;;;;;3.28;0.60;;;10.60;57.00;;;;;;5056384;28;20050;-91
2021/04/14 12:57:46;;;;;;;3.83;0.70;;;10.70;56.20;;;;;;5055178;28;20048;-85
2021/04/14 13:00:22;;;;;;;2.58;0.55;;;10.60;55.50;;;;;;5055028;28;20021;-86
2021/04/14 13:03:04;;;;;;;3.15;1.27;;;10.50;54.00;;;;;;5056360;28;20316;-81
2021/04/14 13:05:48;;;;;;;1.30;0.63;;;10.40;52.10;;;;;;5056029;28;20063;-88
2021/04/14 13:08:22;;;;;;;4.38;1.20;;;10.30;52.60;;;;;;5055571;28;20017;-87
2021/04/14 13:10:55;;;;;;;1.20;0.50;;;10.40;53.30;;;;;;5058965;28;20029;-88
2021/04/14 13:13:23;;;;;;;2.70;0.85;;;;;;;;;;5059757;28;20021;-85
2021/04/14 13:15:57;;;;;;;1.27;0.50;;;;;;;;;;5058479;28;20166;-85
2021/04/14 13:18:26;;;;;;;2.25;0.43;;;;;;;;;;5059233;28;20032;-85
2021/04/14 13:20:54;;;;;;;2.45;0.50;;;11.70;50.80;;;;;;5059471;28;20110;-89
2021/04/14 13:23:32;;;;;;;2.70;0.65;;;12.20;50.70;;;;;;5059674;28;20040;-89
2021/04/14 13:26:30;;;;;;;3.72;0.70;;;13.00;49.30;;;;;;5059797;28;20048;-90
2021/04/14 13:29:15;;;;;;;0.70;0.40;;;13.70;48.70;;;;;;5059826;28;20017;-90
2021/04/14 13:32:13;;;;;;;3.30;0.88;;;14.40;47.50;;;;;;5060312;28;20036;-90
2021/04/14 13:35:03;;;;;;;4.85;0.75;;;15.10;44.00;;;;;;5059710;28;20033;-91
2021/04/14 13:37:35;;;;;;;3.33;0.75;;;15.70;43.40;;;;;;5059293;28;20032;-92
2021/04/14 13:40:25;;;;;;;1.05;0.60;;;;;;;;;;5058247;28;20363;-87
2021/04/14 13:43:00;;;;;;;3.85;0.55;;;;;;;;;;5058131;28;20083;-87
2021/04/14 13:45:35;;;;;;;1.67;0.60;;;;;;;;;;5059337;28;20491;-87
2021/04/14 13:48:18;;;;;;;4.50;0.82;;;;;;;;;;5059106;28;20025;-87
2021/04/14 13:50:49;;;;;;;3.95;0.98;;;;;;;;;;5059240;28;20013;-87
2021/04/14 13:53:16;;;;;;;4.47;1.42;;;;;;;;;;5058988;28;20021;-87
2021/04/14 13:55:44;;;;;;;2.95;0.90;;;;;;;;;;5058805;28;20036;-89
2021/04/14 13:58:17;;;;;;;4.75;0.95;;;;;;;;;;5059307;28;20079;-87
2021/04/14 14:00:55;;;;;;;1.65;0.70;;;;;;;;;;5058473;28;20439;-85
2021/04/14 14:03:27;;;;;;;4.38;0.60;;;;;;;;;;5059105;28;20025;-87
2021/04/14 14:05:57;;;;;;;2.42;0.63;;;;;;;;;;5058668;28;20361;-88
2021/04/14 14:08:36;;;;;;;1.60;0.57;;;;;;;;;;5059590;28;20028;-87
2021/04/14 14:11:05;;;;;;;4.85;0.80;;;;;;;;;;5059846;28;20024;-82
2021/04/14 14:13:44;;;;;;;2.63;0.80;;;17.20;42.40;;;;;;5058640;28;20029;-77
2021/04/14 14:16:13;;;;;;;1.85;0.68;;;17.90;44.20;;;;;;5058467;28;20432;-80
2021/04/14 14:19:03;;;;;;;1.20;0.75;;;18.70;45.70;;;;;;5059720;28;20029;-81
2021/04/14 14:21:35;;;;;;;3.10;0.80;;;18.20;46.20;;;;;;5054999;28;20053;-78
2021/04/14 14:24:05;;;;;;;3.20;0.60;;;17.10;48.10;;;;;;5021027;28;20064;-78
2021/04/14 14:26:35;;;;;;;1.88;0.60;;;16.30;49.90;;;;;;5039311;28;20013;-84
2021/04/14 14:29:06;;;;;;;3.72;0.90;;;15.60;51.10;;;;;;5021772;28;20028;-92
2021/04/14 14:31:35;;;;;;;2.63;0.60;;;15.00;52.30;;;;;;5039186;28;20021;-86
2021/04/14 14:34:04;;;;;;;1.02;0.60;;;14.50;53.60;;;;;;5021272;28;20421;-82
2021/04/14 14:36:32;;;;;;;1.52;0.60;;;14.70;53.90;;;;;;5038991;28;20041;-81
2021/04/14 14:39:12;;;;;;;1.02;0.63;;;15.00;52.60;;;;;;5038828;28;20025;-78
2021/04/14 14:41:45;;;;;;;1.75;0.70;;;14.80;53.00;;;;;;5038498;28;20216;-82
2021/04/14 14:44:23;;;;;;;3.10;1.55;;;14.10;55.20;;;;;;5038870;28;20018;-85
2021/04/14 14:46:52;;;;;;;0.95;0.40;;;13.40;56.20;;;;;;5039582;28;20041;-84
2021/04/14 14:49:33;;;;;;;1.58;0.60;;;13.00;57.70;;;;;;5021547;28;20499;-84
2021/04/14 14:52:02;;;;;;;2.58;0.40;;;12.60;58.10;;;;;;5038979;28;20025;-76
2021/04/14 14:54:31;;;;;;;1.05;0.60;;;11.80;59.00;;;;;;5038973;28;20026;-75
2021/04/14 14:57:26;;;;;;;2.53;0.82;;;11.10;61.20;;;;;;5021338;28;20036;-85
2021/04/14 15:00:15;;;;;;;4.95;0.55;;;10.50;62.90;;;;;;5021489;28;20110;-80
2021/04/14 15:02:44;;;;;;;1.83;0.68;;;9.90;63.50;;;;;;5021126;28;20025;-85
2021/04/14 15:05:13;;;;;;;3.28;1.17;;;9.40;65.60;;;;;;5020112;28;20112;-78
2021/04/14 15:07:41;;;;;;;1.80;1.05;;;9.00;66.70;;;;;;5037652;28;20360;-80
2021/04/14 15:10:12;;;;;;;6.38;0.80;;;8.80;68.20;;;;;;5037895;28;20018;-85
2021/04/14 15:12:40;;;;;;;2.67;0.73;;;8.70;69.40;;;;;;5037943;28;20025;-80
2021/04/14 15:15:09;;;;;;;3.72;0.80;;;8.50;69.10;;;;;;5037625;28;20101;-80
2021/04/14 15:17:37;;;;;;;4.40;0.75;;;8.50;69.00;;;;;;5019862;28;20038;-81
2021/04/14 15:20:07;;;;;;;2.60;1.05;;;8.40;67.30;;;;;;5019803;28;20356;-83
2021/04/14 15:22:35;;;;;;;2.13;0.82;;;8.30;66.40;;;;;;5040672;28;20053;-83
2021/04/14 15:25:09;;;;;;;4.65;0.68;;;8.30;67.60;;;;;;5056704;28;20028;-84
2021/04/14 15:27:41;;;;;;;1.80;0.75;;;8.40;67.40;;;;;;5056902;28;20029;-84
2021/04/14 15:30:30;;;;;;;5.60;0.90;;;8.40;67.10;;;;;;5057174;28;20147;-81
2021/04/14 15:32:58;;;;;;;2.75;0.80;;;8.40;65.20;;;;;;5056725;28;20116;-87
2021/04/14 15:35:32;;;;;;;4.57;0.60;;;8.50;64.60;;;;;;5058568;28;20396;-84
2021/04/14 15:38:04;;;;;;;1.88;0.70;;;8.60;64.70;;;;;;5057988;28;20025;-84
2021/04/14 15:40:36;;;;;;;1.75;0.90;;;8.70;64.60;;;;;;5058057;28;20029;-85
2021/04/14 15:43:04;;;;;;;1.23;0.80;;;8.90;63.50;;;;;;5056954;28;20158;-88
2021/04/14 15:45:33;;;;;;;1.45;0.60;;;9.00;63.80;;;;;;5056748;28;20025;-84
2021/04/14 15:48:03;;;;;;;2.88;0.70;;;9.10;63.70;;;;;;5056204;28;20025;-89
2021/04/14 15:50:36;;;;;;;1.52;0.80;;;9.40;63.60;;;;;;5055557;28;20029;-84
2021/04/14 15:53:04;;;;;;;3.70;0.70;;;9.60;62.90;;;;;;5055606;28;20392;-84
2021/04/14 15:55:33;;;;;;;1.30;0.60;;;9.90;60.80;;;;;;5056781;28;20028;-78
2021/04/14 15:58:05;;;;;;;3.53;0.75;;;10.10;60.50;;;;;;5056918;28;20025;-77
2021/04/14 16:00:43;;;;;;;2.78;0.90;;;10.70;60.10;;;;;;5055321;28;20036;-83
2021/04/14 16:03:17;;;;;;;4.78;0.85;;;11.70;57.40;;;;;;5056687;28;20094;-88
2021/04/14 16:05:44;;;;;;;3.10;0.80;;;13.20;55.20;;;;;;5056535;28;20028;-88
2021/04/14 16:08:14;;;;;;;2.70;1.00;;;14.40;52.60;;;;;;5055503;28;20298;-85
2021/04/14 16:10:43;;;;;;;6.03;0.90;;;15.70;49.30;;;;;;5056093;28;20413;-84
2021/04/14 16:13:11;;;;;;;3.00;1.17;;;16.50;48.30;;;;;;5056312;28;20044;-84
2021/04/14 16:15:38;;;;;;;5.95;0.80;;;17.20;45.90;;;;;;5056215;28;20028;-86
2021/04/14 16:18:14;;;;;;;5.47;0.90;;;17.80;45.40;;;;;;5057927;28;20021;-87
2021/04/14 16:20:42;;;;;;;;;;;18.80;44.10;;;;;;5057750;28;20017;-85
2021/04/14 16:23:10;;;;;;;2.90;1.13;;;19.30;42.60;;;;;;5042478;28;19968;-89
2021/04/14 16:25:39;;;;;;;2.22;0.80;;;19.40;42.30;;;;;;5019836;28;20053;-85
2021/04/14 16:28:09;;;;;;;1.95;0.82;;;18.30;43.90;;;;;;5019726;28;20028;-86
2021/04/14 16:30:38;;;;;;;2.53;0.80;;;16.70;46.00;;;;;;5019010;28;20437;-85
2021/04/14 16:33:06;;;;;;;2.83;0.85;;;15.30;48.40;;;;;;5018857;28;20083;-84
2021/04/14 16:35:35;;;;;;;1.38;0.80;;;13.90;50.60;;;;;;5018827;28;20021;-85
2021/04/14 16:38:03;;;;;;;3.35;0.52;;;12.80;53.70;;;;;;5036647;28;20101;-85
2021/04/14 16:40:31;;;;;;;4.28;1.33;;;12.10;55.90;;;;;;5019095;28;20025;-84
2021/04/14 16:42:59;;;;;;;3.70;0.60;;;11.40;57.60;;;;;;5018942;28;20297;-84
2021/04/14 16:45:30;;;;;;;3.05;0.57;;;10.80;60.40;;;;;;5022715;28;20112;-84
2021/04/14 16:47:58;;;;;;;2.17;0.77;;;9.90;63.80;;;;;;5040198;28;20018;-84
2021/04/14 16:50:26;;;;;;;0.57;0.38;;;9.00;67.30;;;;;;5040165;28;20033;-84
2021/04/14 16:52:53;;;;;;;1.05;0.55;;;8.20;70.70;;;;;;5022979;28;20036;-84
2021/04/14 16:55:22;;;;;;;1.50;0.80;;;7.50;73.40;;;;;;5041011;28;20452;-83
2021/04/14 16:57:50;;;;;;;1.55;0.80;;;7.00;76.30;;;;;;5023331;28;20025;-83
2021/04/14 17:00:29;;;;;;;0.93;0.40;;;6.50;77.80;;;;;;5023300;28;20029;-83
2021/04/14 17:02:57;;;;;;;5.43;0.80;;;6.00;79.90;;;;;;5041065;28;20029;-82
2021/04/14 17:05:26;;;;;;;1.85;0.80;;;5.70;81.70;;;;;;5023220;28;20078;-82
2021/04/14 17:07:54;;;;;;;2.47;1.40;;;5.40;81.50;;;;;;5023189;28;20086;-82
2021/04/14 17:10:24;;;;;;;2.00;0.60;;;5.20;83.10;;;;;;5023069;28;20018;-82
2021/04/14 17:12:57;;;;;;;0.90;0.50;;;5.00;81.70;;;;;;5040462;28;20022;-82
2021/04/14 17:15:26;;;;;;;0.98;0.60;;;5.00;83.20;;;;;;5039610;28;20025;-82
2021/04/14 17:17:54;;;;;;;1.17;0.50;;;5.80;82.70;;;;;;5039683;28;20049;-83
2021/04/14 17:20:22;;;;;;;1.35;0.60;;;7.20;80.40;;;;;;5021992;28;20421;-83
2021/04/14 17:22:49;;;;;;;1.08;0.40;;;8.10;75.60;;;;;;5039458;28;20049;-83
2021/04/14 17:25:17;;;;;;;0.38;0.20;;;8.30;75.10;;;;;;5039448;28;20417;-83
2021/04/14 17:27:45;;;;;;;1.80;1.00;;;8.30;72.40;;;;;;5021915;28;20064;-83
2021/04/14 17:30:19;;;;;;;1.58;0.70;;;8.20;73.60;;;;;;5021818;28;20472;-82
2021/04/14 17:32:47;;;;;;;0.73;0.43;;;8.10;70.20;;;;;;5021765;28;20038;-83
2021/04/14 17:35:14;;;;;;;1.23;0.43;;;7.90;71.30;;;;;;5039382;28;20510;-82
2021/04/14 17:37:41;;;;;;;1.80;0.28;;;7.60;69.00;;;;;;5040212;28;20109;-82
2021/04/14 17:40:09;;;;;;;0.45;0.20;;;7.30;68.70;;;;;;5022618;28;20037;-82
2021/04/14 17:42:37;;;;;;;0.75;0.40;;;7.00;71.00;;;;;;5022500;28;20057;-82
2021/04/14 17:45:07;;;;;;;4.47;0.30;;;6.80;72.80;;;;;;5022589;28;20041;-82
2021/04/14 17:47:35;;;;;;;1.25;0.70;;;6.50;74.90;;;;;;5040099;28;20021;-82
2021/04/14 17:50:04;;;;;;;2.58;0.30;;;6.30;75.00;;;;;;5039995;28;20017;-82
2021/04/14 17:52:32;;;;;;;3.67;0.60;;;6.00;77.20;;;;;;5022400;28;20025;-82
2021/04/14 17:55:00;;;;;;;0.77;0.40;;;5.90;78.30;;;;;;5021810;28;20025;-82
2021/04/14 17:57:27;;;;;;;1.27;0.73;;;5.70;79.50;;;;;;5039338;28;20056;-82
2021/04/14 17:59:55;;;;;;;2.88;1.42;;;5.60;80.30;;;;;;5021325;28;20082;-82
2021/04/14 18:02:23;;;;;;;3.28;1.42;;;5.50;80.60;;;;;;5039064;28;20548;-82
2021/04/14 18:04:52;;;;;;;2.58;1.05;;;5.40;81.40;;;;;;5021192;28;20071;-82
2021/04/14 18:07:23;;;;;;;6.65;3.13;;;5.30;82.20;;;;;;5038702;28;20125;-82
2021/04/14 18:09:52;;;;;;;1.80;1.00;;;5.10;82.70;;;;;;5021444;28;20022;-82
2021/04/14 18:12:20;;;;;;;1.65;0.80;;;5.00;83.60;;;;;;5037591;28;20029;-82
2021/04/14 18:14:48;;;;;;;2.92;1.30;;;4.90;84.20;;;;;;5038619;28;20105;-82
2021/04/14 18:17:16;;;;;;;6.70;2.90;;;4.70;85.80;;;;;;5038500;28;20444;-82
2021/04/14 18:19:45;;;;;;;2.35;1.65;;;4.50;86.40;;;;;;5039023;28;20022;-82
2021/04/14 18:22:13;;;;;;;23.42;7.68;;;4.30;87.40;;;;;;5039448;28;20045;-82
2021/04/14 18:24:41;;;;;;;40.58;13.68;;;4.20;88.90;;;;;;5021743;28;20049;-82
2021/04/14 18:27:11;;;;;;;7.25;3.00;;;4.10;90.20;;;;;;5021650;28;20440;-82
2021/04/14 18:29:38;;;;;;;5.97;2.10;;;4.00;90.30;;;;;;5022007;28;20324;-82
2021/04/14 18:32:07;;;;;;;2.60;1.15;;;3.90;90.30;;;;;;5021651;28;20025;-81
2021/04/14 18:34:34;;;;;;;2.90;1.30;;;3.80;90.30;;;;;;5039058;28;20030;-82
2021/04/14 18:37:03;;;;;;;5.95;1.88;;;3.70;90.40;;;;;;5021549;28;20028;-81
2021/04/14 18:39:31;;;;;;;3.13;1.15;;;3.60;90.60;;;;;;5038864;28;20437;-82
2021/04/14 18:41:59;;;;;;;17.48;7.45;;;3.50;90.80;;;;;;5020481;28;20026;-81
2021/04/14 18:44:27;;;;;;;55.65;21.02;;;3.40;91.20;;;;;;5038355;28;20068;-82
2021/04/14 18:46:55;;;;;;;34.60;14.85;;;3.30;91.60;;;;;;5038312;28;20142;-81
2021/04/14 18:49:27;;;;;;;21.95;8.68;;;3.20;91.90;;;;;;5037921;28;20025;-81
2021/04/14 18:51:56;;;;;;;8.15;3.67;;;3.20;91.90;;;;;;5020333;28;20061;-81
2021/04/14 18:54:24;;;;;;;3.17;1.80;;;3.10;92.10;;;;;;5020160;28;20417;-81
2021/04/14 18:56:53;;;;;;;3.35;1.67;;;3.10;92.10;;;;;;5038050;28;20017;-81
2021/04/14 18:59:22;;;;;;;2.80;1.33;;;3.00;92.10;;;;;;5020095;28;20026;-81
2021/04/14 19:01:51;;;;;;;5.50;1.30;;;2.90;92.10;;;;;;5037963;28;20030;-81
2021/04/14 19:04:19;;;;;;;1.77;1.00;;;2.80;92.10;;;;;;5020922;28;20053;-81
2021/04/14 19:06:47;;;;;;;2.20;1.27;;;2.70;92.20;;;;;;5020159;28;20026;-81
2021/04/14 19:09:24;;;;;;;2.30;1.35;;;2.60;92.30;;;;;;5020907;28;20421;-81
2021/04/14 19:11:52;;;;;;;2.65;1.40;;;2.60;92.50;;;;;;5020714;28;20021;-82
2021/04/14 19:14:21;;;;;;;4.68;1.83;;;2.50;92.70;;;;;;5020839;28;20036;-81
2021/04/14 19:16:49;;;;;;;2.53;1.60;;;2.40;92.90;;;;;;5038645;28;20030;-81
2021/04/14 19:19:18;;;;;;;2.97;1.65;;;2.30;93.00;;;;;;5020689;28;20451;-81
2021/04/14 19:21:46;;;;;;;3.55;1.50;;;2.20;93.10;;;;;;5020382;28;20056;-81
2021/04/14 19:24:15;;;;;;;4.68;1.58;;;2.10;93.30;;;;;;5019728;28;20052;-81
2021/04/14 19:26:45;;;;;;;4.75;1.83;;;2.00;93.40;;;;;;5019725;28;20021;-81
2021/04/14 19:29:14;;;;;;;5.53;1.38;;;2.00;93.50;;;;;;5019619;28;20029;-81
2021/04/14 19:31:43;;;;;;;3.35;1.50;;;1.90;93.70;;;;;;5037235;28;20025;-81
2021/04/14 19:34:11;;;;;;;3.58;2.00;;;1.80;93.80;;;;;;5037087;28;20052;-81
2021/04/14 19:36:39;;;;;;;2.50;1.48;;;1.80;93.90;;;;;;5037386;28;20032;-81
2021/04/14 19:39:08;;;;;;;4.60;1.80;;;1.80;93.90;;;;;;5019500;28;20029;-81
2021/04/14 19:41:36;;;;;;;4.75;2.00;;;1.70;94.00;;;;;;5037207;28;20022;-73
2021/04/14 19:44:04;;;;;;;2.97;1.92;;;1.70;94.10;;;;;;5037437;28;20029;-74
2021/04/14 19:46:32;;;;;;;6.68;2.88;;;1.70;94.40;;;;;;5037540;28;20052;-80
2021/04/14 19:49:02;;;;;;;6.72;3.15;;;1.70;94.40;;;;;;5037986;28;20025;-80
2021/04/14 19:51:30;;;;;;;5.45;2.38;;;1.60;94.40;;;;;;5038017;28;20020;-80
2021/04/14 19:53:58;;;;;;;10.05;5.03;;;1.60;94.60;;;;;;5037756;28;20345;-80
2021/04/14 19:56:25;;;;;;;7.90;4.72;;;1.50;94.70;;;;;;5020146;28;20049;-80
2021/04/14 19:58:53;;;;;;;5.40;3.38;;;1.50;94.90;;;;;;5020127;28;20026;-80
2021/04/14 20:01:22;;;;;;;8.23;2.95;;;1.50;95.00;;;;;;5019989;28;20079;-80
2021/04/14 20:03:50;;;;;;;7.25;4.22;;;1.40;95.10;;;;;;5020254;28;20303;-80
2021/04/14 20:06:18;;;;;;;3.53;2.20;;;1.40;95.20;;;;;;5019432;28;20373;-80
2021/04/14 20:08:46;;;;;;;4.63;2.17;;;1.40;95.40;;;;;;5036532;28;20044;-80
2021/04/14 20:11:14;;;;;;;4.82;1.65;;;1.30;95.50;;;;;;5036841;28;20014;-80
2021/04/14 20:13:43;;;;;;;3.00;1.95;;;1.20;95.70;;;;;;5036827;28;20104;-81
2021/04/14 20:16:12;;;;;;;2.65;1.52;;;1.10;95.80;;;;;;5018879;28;20333;-81
2021/04/14 20:18:40;;;;;;;4.68;2.08;;;1.10;95.90;;;;;;5018639;28;20044;-80
2021/04/14 20:21:09;;;;;;;3.03;1.90;;;1.00;96.10;;;;;;5018854;28;20021;-80
2021/04/14 20:23:37;;;;;;;10.82;5.40;;;1.00;96.20;;;;;;5050913;28;20045;-80
2021/04/14 20:26:05;;;;;;;5.82;2.90;;;1.00;96.30;;;;;;5055175;28;20031;-81
2021/04/14 20:28:33;;;;;;;6.68;3.30;;;1.00;96.30;;;;;;5055398;28;20028;-80
2021/04/14 20:31:00;;;;;;;6.53;3.20;;;0.90;96.40;;;;;;5056180;28;20083;-80
2021/04/14 20:33:29;;;;;;;7.72;2.88;;;0.90;96.50;;;;;;5056012;28;20060;-80
2021/04/14 20:35:57;;;;;;;4.60;2.45;;;0.90;96.70;;;;;;5057190;28;20018;-80
2021/04/14 20:38:26;;;;;;;4.32;2.30;;;0.90;97.10;;;;;;5055967;28;20424;-80
2021/04/14 20:40:54;;;;;;;3.20;1.90;;;0.80;97.40;;;;;;5056025;28;20059;-80
2021/04/14 20:43:22;;;;;;;6.30;2.53;;;0.80;97.80;;;;;;5057304;28;20032;-80
2021/04/14 20:45:50;;;;;;;4.72;2.17;;;0.80;98.00;;;;;;5057390;28;20025;-80
2021/04/14 20:48:17;;;;;;;4.43;2.30;;;0.80;98.30;;;;;;5055707;28;20409;-80
2021/04/14 20:50:45;;;;;;;5.32;3.15;;;0.90;98.50;;;;;;5056368;28;20028;-80
2021/04/14 20:53:13;;;;;;;4.88;3.22;;;0.90;98.70;;;;;;5056105;28;20028;-80
2021/04/14 20:55:42;;;;;;;4.07;1.85;;;0.90;98.70;;;;;;5055034;28;20021;-81
2021/04/14 20:58:09;;;;;;;2.33;1.55;;;0.90;98.70;;;;;;5056019;28;20027;-80
2021/04/14 21:00:37;;;;;;;4.60;2.45;;;0.80;98.80;;;;;;5054930;28;20025;-80
2021/04/14 21:03:05;;;;;;;4.82;2.50;;;0.80;98.80;;;;;;5054723;28;20036;-80
2021/04/14 21:05:33;;;;;;;4.30;2.55;;;0.80;98.70;;;;;;5054806;28;20029;-80
2021/04/14 21:08:00;;;;;;;4.13;2.25;;;0.80;98.70;;;;;;5054914;28;20033;-80
2021/04/14 21:10:28;;;;;;;6.45;2.45;;;0.80;98.80;;;;;;5054821;28;20025;-80
2021/04/14 21:12:56;;;;;;;4.07;2.28;;;0.80;99.00;;;;;;5057088;28;20048;-80
2021/04/14 21:15:24;;;;;;;6.35;2.22;;;0.80;99.10;;;;;;5057089;28;20025;-80
2021/04/14 21:17:51;;;;;;;4.05;2.75;;;0.80;99.10;;;;;;5056789;28;20021;-80
2021/04/14 21:20:31;;;;;;;4.20;2.30;;;0.80;99.40;;;;;;5055612;28;20032;-80
2021/04/14 21:22:59;;;;;;;6.63;3.85;;;0.80;99.20;;;;;;5055411;28;20127;-80
2021/04/14 21:25:27;;;;;;;5.15;2.20;;;0.70;99.30;;;;;;5055553;28;20301;-80
2021/04/14 21:27:55;;;;;;;5.57;2.38;;;0.70;99.50;;;;;;5055458;28;20025;-80
2021/04/14 21:30:27;;;;;;;5.85;3.10;;;0.60;99.50;;;;;;5057948;28;20021;-80
2021/04/14 21:32:56;;;;;;;4.30;2.80;;;0.60;99.50;;;;;;5059645;28;20033;-80
2021/04/14 21:35:24;;;;;;;5.78;2.25;;;0.60;99.50;;;;;;5058190;28;20036;-80
2021/04/14 21:37:54;;;;;;;5.05;2.67;;;0.50;99.50;;;;;;5059313;28;20032;-80
2021/04/14 21:40:33;;;;;;;4.20;2.83;;;0.50;99.60;;;;;;5059297;28;20029;-80
2021/04/14 21:43:01;;;;;;;7.63;2.60;;;0.50;99.60;;;;;;5059401;28;20033;-80
2021/04/14 21:45:29;;;;;;;7.00;3.30;;;0.50;99.60;;;;;;5058033;28;20482;-80
2021/04/14 21:47:57;;;;;;;9.55;4.70;;;0.40;99.60;;;;;;5057957;28;20027;-80
2021/04/14 21:50:30;;;;;;;14.07;6.57;;;0.40;99.90;;;;;;5059079;28;20412;-80